createdAt,value
2019-06-10T00:01:08.509Z,12.40
2019-06-10T00:03:37.869Z,12.40
2019-06-10T00:06:07.474Z,12.40
2019-06-10T00:08:37.082Z,12.40
2019-06-10T00:11:07.818Z,12.40
2019-06-10T00:13:37.578Z,12.40
2019-06-10T00:16:08.050Z,12.40
2019-06-10T00:18:42.053Z,12.40
2019-06-10T00:21:11.218Z,12.40
2019-06-10T00:23:41.221Z,12.40
2019-06-10T00:26:12.508Z,12.40
2019-06-10T00:28:42.402Z,12.30
2019-06-10T00:31:12.015Z,12.30
2019-06-10T00:33:41.675Z,12.40
2019-06-10T00:36:13.633Z,12.40
2019-06-10T00:38:42.581Z,12.40
2019-06-10T00:41:14.148Z,12.40
2019-06-10T00:43:43.461Z,12.40
2019-06-10T00:46:13.414Z,12.40
2019-06-10T00:48:43.196Z,12.30
2019-06-10T00:51:13.269Z,12.30
2019-06-10T00:53:43.056Z,12.20
2019-06-10T00:56:14.335Z,12.20
2019-06-10T00:58:43.923Z,12.10
2019-06-10T01:01:14.732Z,13.50
2019-06-10T01:03:44.618Z,12.10
2019-06-10T01:06:15.066Z,12.00
2019-06-10T01:08:44.985Z,12.00
2019-06-10T01:11:21.298Z,12.00
2019-06-10T01:13:46.034Z,12.00
2019-06-10T01:16:15.794Z,12.10
2019-06-10T01:18:45.530Z,12.20
2019-06-10T01:21:15.547Z,12.10
2019-06-10T01:23:45.303Z,12.20
2019-06-10T01:26:16.446Z,12.20
2019-06-10T01:28:46.360Z,12.20
2019-06-10T01:31:20.870Z,12.10
2019-06-10T01:33:47.474Z,12.00
2019-06-10T01:36:18.244Z,11.90
2019-06-10T01:38:50.947Z,12.00
2019-06-10T01:41:21.320Z,12.00
2019-06-10T01:43:51.541Z,12.80
2019-06-10T01:46:21.638Z,12.00
2019-06-10T01:48:52.134Z,12.00
2019-06-10T01:51:22.162Z,12.00
2019-06-10T01:53:51.954Z,11.90
2019-06-10T01:56:22.009Z,12.00
2019-06-10T01:58:52.101Z,12.00
2019-06-10T02:01:34.066Z,12.00
2019-06-10T02:04:03.859Z,11.90
2019-06-10T02:06:33.794Z,11.90
2019-06-10T02:09:06.353Z,11.90
2019-06-10T02:11:37.348Z,11.90
2019-06-10T02:14:10.123Z,11.90
2019-06-10T02:16:41.446Z,11.90
2019-06-10T02:19:13.961Z,11.90
2019-06-10T02:21:43.294Z,11.90
2019-06-10T02:24:14.786Z,11.80
2019-06-10T02:26:45.161Z,11.80
2019-06-10T02:29:16.117Z,11.80
2019-06-10T02:31:46.629Z,11.80
2019-06-10T02:34:21.836Z,11.90
2019-06-10T02:36:47.964Z,11.90
2019-06-10T02:39:25.881Z,11.90
2019-06-10T02:41:53.552Z,11.90
2019-06-10T02:44:32.546Z,12.00
2019-06-10T02:46:55.579Z,12.00
2019-06-10T02:49:46.236Z,12.10
2019-06-10T02:51:57.189Z,12.10
2019-06-10T02:54:31.493Z,12.10
2019-06-10T02:56:58.977Z,12.10
2019-06-10T02:59:31.574Z,12.10
2019-06-10T03:02:03.056Z,12.20
2019-06-10T03:04:37.256Z,12.30
2019-06-10T03:07:04.817Z,12.20
2019-06-10T03:09:35.777Z,12.40
2019-06-10T03:12:05.697Z,12.40
2019-06-10T03:14:35.405Z,12.50
2019-06-10T03:17:08.786Z,12.50
2019-06-10T03:19:49.488Z,12.60
2019-06-10T03:22:09.829Z,12.70
2019-06-10T03:24:42.034Z,12.80
2019-06-10T03:27:12.644Z,12.90
2019-06-10T03:29:42.278Z,12.90
2019-06-10T03:32:16.574Z,12.90
2019-06-10T03:34:47.215Z,13.00
2019-06-10T03:37:16.093Z,13.10
2019-06-10T03:39:46.001Z,13.10
2019-06-10T03:42:16.761Z,13.10
2019-06-10T03:44:46.481Z,13.20
2019-06-10T03:47:17.083Z,13.30
2019-06-10T03:49:52.573Z,13.40
2019-06-10T03:52:19.321Z,13.40
2019-06-10T03:54:49.058Z,13.40
2019-06-10T03:57:19.223Z,13.40
2019-06-10T03:59:49.077Z,13.40
2019-06-10T04:02:19.414Z,13.50
2019-06-10T04:04:52.350Z,13.50
2019-06-10T04:07:26.455Z,13.50
2019-06-10T04:09:53.988Z,13.60
2019-06-10T04:12:24.662Z,13.60
2019-06-10T04:14:55.018Z,13.60
2019-06-10T04:17:25.696Z,13.60
2019-06-10T04:20:10.426Z,13.70
2019-06-10T04:22:28.403Z,13.70
2019-06-10T04:24:58.348Z,13.70
2019-06-10T04:27:28.413Z,13.80
2019-06-10T04:29:58.357Z,13.90
2019-06-10T04:32:29.128Z,13.90
2019-06-10T04:34:58.949Z,14.00
2019-06-10T04:37:29.532Z,14.10
2019-06-10T04:39:59.335Z,14.20
2019-06-10T04:42:29.055Z,14.30
2019-06-10T04:44:58.781Z,14.30
2019-06-10T04:47:29.632Z,14.30
2019-06-10T04:49:59.435Z,14.40
2019-06-10T04:52:29.810Z,14.50
2019-06-10T04:55:02.590Z,14.50
2019-06-10T04:57:32.788Z,14.60
2019-06-10T05:00:10.960Z,14.60
2019-06-10T05:02:34.998Z,14.70
2019-06-10T05:05:05.356Z,14.80
2019-06-10T05:07:37.039Z,14.90
2019-06-10T05:10:07.204Z,14.90
2019-06-10T05:12:37.072Z,15.00
2019-06-10T05:15:06.990Z,15.10
2019-06-10T05:17:36.664Z,15.20
2019-06-10T05:20:07.486Z,15.20
2019-06-10T05:22:37.218Z,15.40
2019-06-10T05:25:07.270Z,15.40
2019-06-10T05:27:36.980Z,15.40
2019-06-10T05:30:07.704Z,15.50
2019-06-10T05:32:37.378Z,15.60
2019-06-10T05:35:07.570Z,15.80
2019-06-10T05:37:37.221Z,15.90
2019-06-10T05:40:07.341Z,16.00
2019-06-10T05:42:37.429Z,16.00
2019-06-10T05:45:08.362Z,16.00
2019-06-10T05:47:38.109Z,16.10
2019-06-10T05:50:08.883Z,16.10
2019-06-10T05:52:38.689Z,16.20
2019-06-10T05:55:08.374Z,16.40
2019-06-10T05:57:38.094Z,16.40
2019-06-10T06:00:13.913Z,16.60
2019-06-10T06:02:43.113Z,16.70
2019-06-10T06:05:12.983Z,16.90
2019-06-10T06:07:42.718Z,16.80
2019-06-10T06:10:13.062Z,17.00
2019-06-10T06:12:42.916Z,17.10
2019-06-10T06:15:13.112Z,17.00
2019-06-10T06:17:43.329Z,17.10
2019-06-10T06:20:13.578Z,17.40
2019-06-10T06:22:43.235Z,17.30
2019-06-10T06:25:15.086Z,17.30
2019-06-10T06:27:44.667Z,17.20
2019-06-10T06:30:18.555Z,17.20
2019-06-10T06:32:46.402Z,17.30
2019-06-10T06:35:16.193Z,17.40
2019-06-10T06:37:46.101Z,17.50
2019-06-10T06:40:16.059Z,17.60
2019-06-10T06:42:45.746Z,17.60
2019-06-10T06:45:15.601Z,17.70
2019-06-10T06:47:45.309Z,17.80
2019-06-10T06:50:15.069Z,17.80
2019-06-10T06:53:15.535Z,17.90
2019-06-10T06:55:16.213Z,17.90
2019-06-10T06:57:45.903Z,17.90
2019-06-10T07:00:41.050Z,18.00
2019-06-10T07:02:47.920Z,18.10
2019-06-10T07:05:17.742Z,18.10
2019-06-10T07:07:48.785Z,18.10
2019-06-10T07:10:18.489Z,18.10
2019-06-10T07:12:52.201Z,17.90
2019-06-10T07:15:24.981Z,17.90
2019-06-10T07:17:54.710Z,17.90
2019-06-10T07:20:24.489Z,18.00
2019-06-10T07:22:54.266Z,18.30
2019-06-10T07:25:23.926Z,18.00
2019-06-10T07:27:53.762Z,17.90
2019-06-10T07:30:23.505Z,17.90
2019-06-10T07:32:53.209Z,18.30
2019-06-10T07:35:22.922Z,18.60
2019-06-10T07:37:52.680Z,18.40
2019-06-10T07:40:22.509Z,18.40
2019-06-10T07:42:53.938Z,18.50
2019-06-10T07:45:23.650Z,18.40
2019-06-10T07:47:53.366Z,18.20
2019-06-10T07:50:23.142Z,18.30
2019-06-10T07:52:53.023Z,18.70
2019-06-10T07:55:22.782Z,18.80
2019-06-10T07:57:53.047Z,19.30
2019-06-10T08:00:24.625Z,19.60
2019-06-10T08:02:54.527Z,19.10
2019-06-10T08:05:24.295Z,19.20
2019-06-10T08:07:54.771Z,19.60
2019-06-10T08:10:24.785Z,19.20
2019-06-10T08:12:54.519Z,19.00
2019-06-10T08:15:24.312Z,19.10
2019-06-10T08:17:54.845Z,18.80
2019-06-10T08:20:43.840Z,19.00
2019-06-10T08:23:13.787Z,19.50
2019-06-10T08:25:47.664Z,19.60
2019-06-10T08:28:15.130Z,19.60
2019-06-10T08:30:46.126Z,19.60
2019-06-10T08:33:16.369Z,19.80
2019-06-10T08:35:55.767Z,20.70
2019-06-10T08:38:17.460Z,20.70
2019-06-10T08:40:48.535Z,22.00
2019-06-10T08:43:18.474Z,23.20
2019-06-10T08:45:48.787Z,22.50
2019-06-10T08:48:18.622Z,22.60
2019-06-10T08:50:49.996Z,22.10
2019-06-10T08:53:19.671Z,22.60
2019-06-10T08:55:50.249Z,23.40
2019-06-10T08:58:23.103Z,22.20
2019-06-10T09:00:53.578Z,21.60
2019-06-10T09:03:23.504Z,21.40
2019-06-10T09:05:54.564Z,21.10
2019-06-10T09:08:25.705Z,21.10
2019-06-10T09:10:55.741Z,21.80
2019-06-10T09:13:25.608Z,22.70
2019-06-10T09:16:11.008Z,22.00
2019-06-10T09:18:26.782Z,22.30
2019-06-10T09:20:56.469Z,22.70
2019-06-10T09:23:26.241Z,23.10
2019-06-10T09:25:57.444Z,22.60
2019-06-10T09:28:27.372Z,21.80
2019-06-10T09:30:59.082Z,21.80
2019-06-10T09:33:28.411Z,21.60
2019-06-10T09:35:58.060Z,22.00
2019-06-10T09:38:27.858Z,22.30
2019-06-10T09:41:01.782Z,21.80
2019-06-10T09:43:29.110Z,21.80
2019-06-10T09:45:58.790Z,21.80
2019-06-10T09:48:28.547Z,21.60
2019-06-10T09:50:59.248Z,21.40
2019-06-10T09:53:35.034Z,20.90
2019-06-10T09:56:03.838Z,20.60
2019-06-10T09:58:32.981Z,20.50
2019-06-10T10:01:03.727Z,20.20
2019-06-10T10:03:33.488Z,20.10
2019-06-10T10:06:11.519Z,20.20
2019-06-10T10:08:34.966Z,20.20
2019-06-10T10:11:04.828Z,20.00
2019-06-10T10:13:35.420Z,20.30
2019-06-10T10:16:05.671Z,20.70
2019-06-10T10:18:35.486Z,20.90
2019-06-10T10:21:05.360Z,20.80
2019-06-10T10:23:50.337Z,21.00
2019-06-10T10:26:06.516Z,20.60
2019-06-10T10:28:36.173Z,20.50
2019-06-10T10:31:05.849Z,20.60
2019-06-10T10:33:35.640Z,20.50
2019-06-10T10:36:05.489Z,20.60
2019-06-10T10:38:35.268Z,20.90
2019-06-10T10:41:05.681Z,20.80
2019-06-10T10:43:37.599Z,20.00
2019-06-10T10:46:06.761Z,19.60
2019-06-10T10:48:36.437Z,19.70
2019-06-10T10:51:06.226Z,19.70
2019-06-10T10:53:35.965Z,19.40
2019-06-10T10:56:05.786Z,19.10
2019-06-10T10:58:35.703Z,19.00
2019-06-10T11:01:05.415Z,19.00
2019-06-10T11:03:35.111Z,19.10
2019-06-10T11:06:04.775Z,18.90
2019-06-10T11:08:34.470Z,19.20
2019-06-10T11:11:05.710Z,18.80
2019-06-10T11:13:37.283Z,19.00
2019-06-10T11:16:07.334Z,18.90
2019-06-10T11:18:37.153Z,18.70
2019-06-10T11:21:07.630Z,18.10
2019-06-10T11:23:37.437Z,18.10
2019-06-10T11:26:07.146Z,17.90
2019-06-10T11:28:36.848Z,17.70
2019-06-10T11:31:06.643Z,17.20
2019-06-10T11:33:36.549Z,17.20
2019-06-10T11:36:06.390Z,17.20
2019-06-10T11:38:36.122Z,17.30
2019-06-10T11:41:05.983Z,17.40
2019-06-10T11:43:35.786Z,17.50
2019-06-10T11:46:07.743Z,17.40
2019-06-10T11:48:36.882Z,17.60
2019-06-10T11:51:06.584Z,17.70
2019-06-10T11:53:36.292Z,18.00
2019-06-10T11:56:06.080Z,18.20
2019-06-10T11:58:35.988Z,18.50
2019-06-10T12:01:05.747Z,18.80
2019-06-10T12:03:35.522Z,18.80
2019-06-10T12:06:05.856Z,18.90
2019-06-10T12:08:35.674Z,19.30
2019-06-10T12:11:05.471Z,19.20
2019-06-10T12:13:35.182Z,19.10
2019-06-10T12:16:58.376Z,19.10
2019-06-10T12:18:36.323Z,19.00
2019-06-10T12:21:05.988Z,18.80
2019-06-10T12:23:35.677Z,18.50
2019-06-10T12:26:05.529Z,18.20
2019-06-10T12:28:35.633Z,18.00
2019-06-10T12:31:07.314Z,17.80
2019-06-10T12:33:36.709Z,17.80
2019-06-10T12:36:07.365Z,17.80
2019-06-10T12:38:37.414Z,17.90
2019-06-10T12:41:09.925Z,18.00
2019-06-10T12:43:38.681Z,18.00
2019-06-10T12:46:08.457Z,18.10
2019-06-10T12:48:38.262Z,18.00
2019-06-10T12:51:09.462Z,18.10
2019-06-10T12:53:39.596Z,18.10
2019-06-10T12:56:11.123Z,18.00
2019-06-10T12:58:42.912Z,18.10
2019-06-10T13:01:12.082Z,18.00
2019-06-10T13:03:43.726Z,17.80
2019-06-10T13:06:15.678Z,17.80
2019-06-10T13:08:46.198Z,17.80
2019-06-10T13:11:16.066Z,18.00
2019-06-10T13:13:45.781Z,17.90
2019-06-10T13:16:15.543Z,17.60
2019-06-10T13:18:45.438Z,17.50
2019-06-10T13:21:17.822Z,17.50
2019-06-10T13:23:46.665Z,17.50
2019-06-10T13:26:17.928Z,17.50
2019-06-10T13:28:47.778Z,17.50
2019-06-10T13:31:17.476Z,17.50
2019-06-10T13:36:16.212Z,17.50
2019-06-10T13:38:45.946Z,17.50
2019-06-10T13:41:15.975Z,17.40
2019-06-10T13:43:45.961Z,17.50
2019-06-10T13:46:15.832Z,17.50
2019-06-10T13:48:45.502Z,17.40
2019-06-10T13:51:15.862Z,17.10
2019-06-10T13:53:46.409Z,17.10
2019-06-10T13:56:37.808Z,17.10
2019-06-10T13:58:47.758Z,17.10
2019-06-10T14:01:21.662Z,16.90
2019-06-10T14:03:48.758Z,16.60
2019-06-10T14:06:37.124Z,16.50
2019-06-10T14:08:52.189Z,16.50
2019-06-10T14:11:24.424Z,16.40
2019-06-10T14:13:52.735Z,16.50
2019-06-10T14:16:23.393Z,16.40
2019-06-10T14:18:54.194Z,16.50
2019-06-10T14:21:24.070Z,16.60
2019-06-10T14:23:53.898Z,16.70
2019-06-10T14:26:36.906Z,17.00
2019-06-10T14:28:55.001Z,17.40
2019-06-10T14:31:39.362Z,18.10
2019-06-10T14:33:56.077Z,18.50
2019-06-10T14:36:25.690Z,19.10
2019-06-10T14:38:55.390Z,19.30
2019-06-10T14:41:26.051Z,19.30
2019-06-10T14:43:55.835Z,18.90
2019-06-10T14:46:25.532Z,18.50
2019-06-10T14:48:55.303Z,18.80
2019-06-10T14:51:25.061Z,19.60
2019-06-10T14:53:54.802Z,19.70
2019-06-10T14:56:24.469Z,19.50
2019-06-10T14:58:54.151Z,19.40
2019-06-10T15:01:25.381Z,19.70
2019-06-10T15:03:55.170Z,20.20
2019-06-10T15:06:24.856Z,20.60
2019-06-10T15:08:54.506Z,20.60
2019-06-10T15:11:27.544Z,20.80
2019-06-10T15:13:55.485Z,20.80
2019-06-10T15:16:25.191Z,20.70
2019-06-10T15:19:02.636Z,20.80
2019-06-10T15:21:26.260Z,20.40
2019-06-10T15:23:55.940Z,20.80
2019-06-10T15:26:25.613Z,20.70
2019-06-10T15:28:55.357Z,20.50
2019-06-10T15:31:25.094Z,21.10
2019-06-10T15:33:54.797Z,21.30
2019-06-10T15:36:24.577Z,21.60
2019-06-10T15:38:54.304Z,21.70
2019-06-10T15:41:24.707Z,21.40
2019-06-10T15:43:54.705Z,20.80
2019-06-10T15:46:24.410Z,20.30
2019-06-10T15:48:54.380Z,20.10
2019-06-10T15:51:27.014Z,19.90
2019-06-10T15:53:56.843Z,20.00
2019-06-10T15:56:38.666Z,19.90
2019-06-10T15:58:57.863Z,20.10
2019-06-10T16:01:27.696Z,20.10
2019-06-10T16:03:57.966Z,20.10
2019-06-10T16:06:30.045Z,20.10
2019-06-10T16:08:59.730Z,20.20
2019-06-10T16:11:29.398Z,20.20
2019-06-10T16:13:59.182Z,20.10
2019-06-10T16:16:28.950Z,20.60
2019-06-10T16:18:58.685Z,20.60
2019-06-10T16:21:28.351Z,20.40
2019-06-10T16:23:58.058Z,19.80
2019-06-10T16:26:27.818Z,19.70
2019-06-10T16:28:57.469Z,19.70
2019-06-10T16:31:27.639Z,19.60
2019-06-10T16:33:57.570Z,19.40
2019-06-10T16:36:28.003Z,19.00
2019-06-10T16:38:57.908Z,19.00
2019-06-10T16:41:28.220Z,19.70
2019-06-10T16:43:58.042Z,20.20
2019-06-10T16:46:28.975Z,20.60
2019-06-10T16:48:58.895Z,19.90
2019-06-10T16:51:29.800Z,19.30
2019-06-10T16:54:02.242Z,19.10
2019-06-10T16:56:33.609Z,18.90
2019-06-10T16:59:02.984Z,18.90
2019-06-10T17:01:33.281Z,18.90
2019-06-10T17:04:03.035Z,18.90
2019-06-10T17:06:32.852Z,19.00
2019-06-10T17:09:02.901Z,19.30
2019-06-10T17:11:32.723Z,20.50
2019-06-10T17:14:03.116Z,21.20
2019-06-10T17:16:32.933Z,22.30
2019-06-10T17:19:02.644Z,22.60
2019-06-10T17:21:34.622Z,22.40
2019-06-10T17:24:03.981Z,22.10
2019-06-10T17:26:37.871Z,22.40
2019-06-10T17:29:04.955Z,22.40
2019-06-10T17:31:35.471Z,22.10
2019-06-10T17:34:05.239Z,21.60
2019-06-10T17:36:35.566Z,21.40
2019-06-10T17:39:08.257Z,21.20
2019-06-10T17:41:38.281Z,21.10
2019-06-10T17:44:10.010Z,21.20
2019-06-10T17:46:39.701Z,20.90
2019-06-10T17:49:09.370Z,20.80
2019-06-10T17:51:39.198Z,20.60
2019-06-10T17:54:09.069Z,20.60
2019-06-10T17:56:38.766Z,20.40
2019-06-10T17:59:08.434Z,19.90
2019-06-10T18:01:38.147Z,19.90
2019-06-10T18:04:07.770Z,20.00
2019-06-10T18:06:37.510Z,20.00
2019-06-10T18:09:07.826Z,19.90
2019-06-10T18:11:37.582Z,19.80
2019-06-10T18:14:07.397Z,19.70
2019-06-10T18:16:37.230Z,19.70
2019-06-10T18:19:06.990Z,19.50
2019-06-10T18:21:36.734Z,19.40
2019-06-10T18:24:08.494Z,19.40
2019-06-10T18:26:38.181Z,19.30
2019-06-10T18:29:09.185Z,19.30
2019-06-10T18:31:39.400Z,19.20
2019-06-10T18:34:12.959Z,19.00
2019-06-10T18:36:42.573Z,18.80
2019-06-10T18:39:12.359Z,18.70
2019-06-10T18:41:42.570Z,18.50
2019-06-10T18:44:22.059Z,18.50
2019-06-10T18:46:45.157Z,18.40
2019-06-10T18:49:14.973Z,18.30
2019-06-10T18:51:44.727Z,18.30
2019-06-10T18:54:14.514Z,18.20
2019-06-10T18:56:44.242Z,18.10
2019-06-10T18:59:20.688Z,18.00
2019-06-10T19:01:45.593Z,18.00
2019-06-10T19:04:15.286Z,17.90
2019-06-10T19:06:45.042Z,17.80
2019-06-10T19:09:14.786Z,17.80
2019-06-10T19:11:44.746Z,17.80
2019-06-10T19:14:14.523Z,17.70
2019-06-10T19:16:44.261Z,17.70
2019-06-10T19:19:13.989Z,17.60
2019-06-10T19:21:44.325Z,17.50
2019-06-10T19:24:14.209Z,17.40
2019-06-10T19:26:45.159Z,17.20
2019-06-10T19:29:29.961Z,17.10
2019-06-10T19:31:46.638Z,16.90
2019-06-10T19:34:16.452Z,16.80
2019-06-10T19:36:46.206Z,16.70
2019-06-10T19:39:16.047Z,16.70
2019-06-10T19:41:47.413Z,16.60
2019-06-10T19:44:17.113Z,16.50
2019-06-10T19:46:46.822Z,16.50
2019-06-10T19:49:16.564Z,16.30
2019-06-10T19:51:46.922Z,16.20
2019-06-10T19:54:16.830Z,16.10
2019-06-10T19:56:46.569Z,16.00
2019-06-10T19:59:16.258Z,16.00
2019-06-10T20:01:48.357Z,15.90
2019-06-10T20:04:18.297Z,15.80
2019-06-10T20:06:50.693Z,15.70
2019-06-10T20:09:19.473Z,15.60
2019-06-10T20:11:49.141Z,15.60
2019-06-10T20:14:18.944Z,15.50
2019-06-10T20:16:48.644Z,15.60
2019-06-10T20:19:18.425Z,15.60
2019-06-10T20:21:48.958Z,15.60
2019-06-10T20:24:18.778Z,15.50
2019-06-10T20:26:48.439Z,15.50
2019-06-10T20:29:18.136Z,15.50
2019-06-10T20:31:48.962Z,15.50
2019-06-10T20:34:19.636Z,15.50
2019-06-10T20:36:50.151Z,15.50
2019-06-10T20:39:24.389Z,15.50
2019-06-10T20:41:54.841Z,15.60
2019-06-10T20:44:22.486Z,15.50
2019-06-10T20:46:52.853Z,15.50
2019-06-10T20:49:22.821Z,15.50
2019-06-10T20:52:06.640Z,15.50
2019-06-10T20:54:23.983Z,15.50
2019-06-10T20:56:53.821Z,15.40
2019-06-10T20:59:26.049Z,15.40
2019-06-10T21:01:55.093Z,15.40
2019-06-10T21:04:25.178Z,15.40
2019-06-10T21:06:56.789Z,15.40
2019-06-10T21:09:27.267Z,15.40
2019-06-10T21:11:57.050Z,15.40
2019-06-10T21:14:26.798Z,15.40
2019-06-10T21:16:56.528Z,15.50
2019-06-10T21:19:26.265Z,15.50
2019-06-10T21:21:56.082Z,15.50
2019-06-10T21:24:25.780Z,15.50
2019-06-10T21:26:55.703Z,15.50
2019-06-10T21:29:25.445Z,15.50
2019-06-10T21:31:55.238Z,15.50
2019-06-10T21:34:24.989Z,15.50
2019-06-10T21:36:54.679Z,15.50
2019-06-10T21:39:24.784Z,15.50
2019-06-10T21:41:54.870Z,15.40
2019-06-10T21:44:24.593Z,15.40
2019-06-10T21:46:54.365Z,15.40
2019-06-10T21:49:24.105Z,15.30
2019-06-10T21:51:56.478Z,15.30
2019-06-10T21:54:25.283Z,15.30
2019-06-10T21:56:55.533Z,15.20
2019-06-10T21:59:25.562Z,15.20
2019-06-10T22:01:55.346Z,15.20
2019-06-10T22:04:25.004Z,15.10
2019-06-10T22:06:56.121Z,15.10
2019-06-10T22:09:25.899Z,15.10
2019-06-10T22:11:55.966Z,15.10
2019-06-10T22:14:25.718Z,15.00
2019-06-10T22:16:56.442Z,15.00
2019-06-10T22:19:26.414Z,14.90
2019-06-10T22:21:56.673Z,14.90
2019-06-10T22:24:26.802Z,14.90
2019-06-10T22:26:56.644Z,14.90
2019-06-10T22:29:26.399Z,14.90
2019-06-10T22:31:57.254Z,14.80
2019-06-10T22:34:27.087Z,14.70
2019-06-10T22:36:57.712Z,14.70
2019-06-10T22:39:27.468Z,14.70
2019-06-10T22:41:57.373Z,14.70
2019-06-10T22:44:27.053Z,14.70
2019-06-10T22:46:57.223Z,14.80
2019-06-10T22:49:27.241Z,14.80
2019-06-10T22:51:58.549Z,14.80
2019-06-10T22:54:28.386Z,14.70
2019-06-10T22:56:58.507Z,14.60
2019-06-10T22:59:28.615Z,14.60
2019-06-10T23:01:59.731Z,14.60
2019-06-10T23:04:29.795Z,14.60
2019-06-10T23:07:00.589Z,14.60
2019-06-10T23:09:30.910Z,14.60
2019-06-10T23:12:02.682Z,14.60
2019-06-10T23:14:33.189Z,14.50
2019-06-10T23:17:03.307Z,14.60
2019-06-10T23:19:33.309Z,14.50
2019-06-10T23:22:03.221Z,14.60
2019-06-10T23:24:33.022Z,14.60
2019-06-10T23:27:03.377Z,14.60
2019-06-10T23:29:33.273Z,14.60
2019-06-10T23:32:06.698Z,14.60
2019-06-10T23:34:34.362Z,14.70
2019-06-10T23:37:04.227Z,14.60
2019-06-10T23:39:33.910Z,14.70
2019-06-10T23:42:04.156Z,14.70
2019-06-10T23:44:34.309Z,14.70
2019-06-10T23:47:04.374Z,14.70
2019-06-10T23:49:34.133Z,14.60
2019-06-10T23:52:05.524Z,14.70
2019-06-10T23:54:36.990Z,14.70
2019-06-10T23:57:06.634Z,14.70
2019-06-10T23:59:36.373Z,14.70
